createdAt,value
2023-03-16T00:01:06.835Z,2.47
2023-03-16T00:03:34.994Z,2.43
2023-03-16T00:06:02.914Z,2.30
2023-03-16T00:08:30.939Z,2.20
2023-03-16T00:10:59.480Z,2.23
2023-03-16T00:13:27.576Z,2.40
2023-03-16T00:15:57.338Z,2.33
2023-03-16T00:18:28.645Z,2.10
2023-03-16T00:20:58.367Z,2.00
2023-03-16T00:23:28.205Z,2.07
2023-03-16T00:25:56.584Z,2.27
2023-03-16T00:28:24.664Z,2.20
2023-03-16T00:30:52.829Z,2.43
2023-03-16T00:33:20.626Z,2.60
2023-03-16T00:35:50.800Z,2.37
2023-03-16T00:38:19.322Z,2.27
2023-03-16T00:40:47.607Z,2.47
2023-03-16T00:43:18.824Z,2.63
2023-03-16T00:45:46.921Z,2.67
2023-03-16T00:48:14.816Z,2.30
2023-03-16T00:50:43.187Z,3.10
2023-03-16T00:53:12.385Z,2.70
2023-03-16T00:55:40.138Z,2.80
2023-03-16T00:58:07.961Z,2.83
2023-03-16T01:00:36.199Z,2.40
2023-03-16T01:03:04.136Z,2.67
2023-03-16T01:05:33.539Z,2.93
2023-03-16T01:08:02.821Z,2.77
2023-03-16T01:10:31.982Z,2.90
2023-03-16T01:12:59.901Z,2.83
2023-03-16T01:15:27.890Z,3.17
2023-03-16T01:17:55.734Z,2.50
2023-03-16T01:20:25.004Z,2.93
2023-03-16T01:22:53.326Z,2.77
2023-03-16T01:25:22.513Z,2.63
2023-03-16T01:27:53.645Z,2.80
2023-03-16T01:30:21.414Z,3.03
2023-03-16T01:32:49.330Z,2.87
2023-03-16T01:35:17.212Z,2.97
2023-03-16T01:37:44.961Z,3.03
2023-03-16T01:40:13.696Z,2.80
2023-03-16T01:43:01.899Z,2.77
2023-03-16T01:46:21.902Z,2.83
2023-03-16T01:49:09.200Z,3.00
2023-03-16T01:51:43.722Z,3.00
2023-03-16T01:54:21.883Z,2.80
2023-03-16T01:56:55.814Z,2.80
2023-03-16T01:59:29.177Z,3.00
2023-03-16T02:01:59.080Z,2.60
2023-03-16T02:04:46.354Z,3.03
2023-03-16T02:07:17.095Z,2.83
2023-03-16T02:09:47.679Z,2.77
2023-03-16T02:12:18.959Z,3.00
2023-03-16T02:14:50.113Z,3.10
2023-03-16T02:17:20.813Z,3.00
2023-03-16T02:20:01.105Z,2.70
2023-03-16T02:22:29.044Z,2.47
2023-03-16T02:24:56.877Z,2.37
2023-03-16T02:27:31.956Z,3.00
2023-03-16T02:30:09.095Z,3.13
2023-03-16T02:32:38.811Z,2.63
2023-03-16T02:35:08.195Z,2.60
2023-03-16T02:37:36.046Z,3.03
2023-03-16T02:40:17.752Z,2.60
2023-03-16T02:42:45.899Z,2.50
2023-03-16T02:45:15.375Z,2.53
2023-03-16T02:47:44.991Z,2.73
2023-03-16T02:50:14.419Z,2.60
2023-03-16T02:52:42.244Z,2.73
2023-03-16T02:55:10.464Z,2.77
2023-03-16T02:57:38.292Z,2.73
2023-03-16T03:00:12.344Z,2.63
2023-03-16T03:02:41.944Z,3.03
2023-03-16T03:05:09.958Z,2.77
2023-03-16T03:07:37.796Z,2.67
2023-03-16T03:10:07.130Z,3.03
2023-03-16T03:12:35.409Z,3.00
2023-03-16T03:15:03.967Z,3.10
2023-03-16T03:17:32.144Z,2.70
2023-03-16T03:20:07.926Z,2.83
2023-03-16T03:22:35.837Z,2.57
2023-03-16T03:25:03.762Z,2.70
2023-03-16T03:27:33.226Z,2.60
2023-03-16T03:30:01.607Z,2.53
2023-03-16T03:32:29.421Z,2.67
2023-03-16T03:34:57.269Z,3.17
2023-03-16T03:37:26.461Z,2.73
2023-03-16T03:39:54.435Z,2.40
2023-03-16T03:42:23.888Z,2.90
2023-03-16T03:44:52.276Z,2.87
2023-03-16T03:47:21.574Z,2.27
2023-03-16T03:49:49.332Z,2.70
2023-03-16T03:52:17.114Z,2.43
2023-03-16T03:54:46.403Z,2.60
2023-03-16T03:57:14.242Z,2.60
2023-03-16T03:59:43.747Z,2.50
2023-03-16T04:02:12.238Z,2.53
2023-03-16T04:04:40.328Z,2.40
2023-03-16T04:07:08.494Z,2.13
2023-03-16T04:09:36.454Z,2.73
2023-03-16T04:12:07.205Z,2.03
2023-03-16T04:14:35.292Z,2.33
2023-03-16T04:17:04.939Z,2.40
2023-03-16T04:19:32.859Z,2.53
2023-03-16T04:22:00.609Z,2.50
2023-03-16T04:24:28.432Z,2.00
2023-03-16T04:26:56.207Z,2.50
2023-03-16T04:29:25.389Z,2.40
2023-03-16T04:31:53.815Z,1.80
2023-03-16T04:34:24.871Z,2.30
2023-03-16T04:36:53.219Z,1.97
2023-03-16T04:39:21.303Z,2.40
2023-03-16T04:41:49.269Z,2.03
2023-03-16T04:44:17.451Z,1.83
2023-03-16T04:46:46.601Z,2.30
2023-03-16T04:49:14.486Z,2.40
2023-03-16T04:51:42.613Z,2.30
2023-03-16T04:54:11.393Z,2.10
2023-03-16T04:56:41.518Z,1.87
2023-03-16T04:59:09.367Z,1.77
2023-03-16T05:01:38.207Z,1.70
2023-03-16T05:04:07.558Z,1.90
2023-03-16T05:06:35.399Z,2.00
2023-03-16T05:09:05.443Z,1.50
2023-03-16T05:11:33.154Z,1.90
2023-03-16T05:14:02.102Z,1.70
2023-03-16T05:16:30.277Z,2.03
2023-03-16T05:18:59.518Z,1.80
2023-03-16T05:21:32.076Z,1.70
2023-03-16T05:23:59.868Z,1.50
2023-03-16T05:26:27.659Z,2.07
2023-03-16T05:28:55.505Z,1.60
2023-03-16T05:31:27.543Z,1.27
2023-03-16T05:33:57.492Z,1.60
2023-03-16T05:36:25.843Z,1.70
2023-03-16T05:38:55.083Z,1.80
2023-03-16T05:41:23.820Z,1.30
2023-03-16T05:43:51.558Z,1.57
2023-03-16T05:46:20.849Z,1.43
2023-03-16T05:48:48.747Z,1.60
2023-03-16T05:51:16.949Z,1.40
2023-03-16T05:53:46.829Z,1.47
2023-03-16T05:56:16.182Z,1.10
2023-03-16T05:58:44.062Z,1.27
2023-03-16T06:01:13.286Z,1.27
2023-03-16T06:03:41.892Z,1.00
2023-03-16T06:06:09.707Z,1.03
2023-03-16T06:08:37.491Z,1.70
2023-03-16T06:11:05.263Z,1.10
2023-03-16T06:13:34.558Z,1.40
2023-03-16T06:16:02.750Z,1.20
2023-03-16T06:18:31.135Z,1.30
2023-03-16T06:20:58.959Z,1.13
2023-03-16T06:23:26.787Z,1.30
2023-03-16T06:25:55.875Z,1.00
2023-03-16T06:28:24.107Z,1.10
2023-03-16T06:30:56.097Z,1.33
2023-03-16T06:33:24.025Z,1.47
2023-03-16T06:35:52.545Z,1.20
2023-03-16T06:38:20.896Z,1.50
2023-03-16T06:40:53.104Z,1.30
2023-03-16T06:43:21.153Z,1.17
2023-03-16T06:45:48.954Z,1.20
2023-03-16T06:48:18.392Z,1.57
2023-03-16T06:50:46.891Z,1.30
2023-03-16T06:53:14.870Z,1.53
2023-03-16T06:55:42.773Z,1.10
2023-03-16T06:58:11.828Z,1.40
2023-03-16T07:00:39.658Z,1.20
2023-03-16T07:03:07.519Z,1.30
2023-03-16T07:05:36.688Z,1.33
2023-03-16T07:08:04.976Z,1.60
2023-03-16T07:10:33.022Z,1.30
2023-03-16T07:13:00.793Z,1.30
2023-03-16T07:15:28.516Z,1.40
2023-03-16T07:17:56.303Z,1.63
2023-03-16T07:20:24.177Z,1.63
2023-03-16T07:22:53.450Z,1.40
2023-03-16T07:25:21.412Z,1.37
2023-03-16T07:27:49.247Z,1.40
2023-03-16T07:30:17.063Z,1.83
2023-03-16T07:32:44.906Z,1.53
2023-03-16T07:35:12.743Z,1.40
2023-03-16T07:37:40.845Z,1.80
2023-03-16T07:40:11.819Z,1.53
2023-03-16T07:42:39.645Z,1.50
2023-03-16T07:45:08.950Z,1.60
2023-03-16T07:47:36.983Z,1.40
2023-03-16T07:50:05.167Z,1.67
2023-03-16T07:52:36.454Z,1.40
2023-03-16T07:55:05.774Z,1.50
2023-03-16T07:57:34.997Z,1.30
2023-03-16T08:00:05.254Z,1.03
2023-03-16T08:02:33.733Z,0.87
2023-03-16T08:05:01.442Z,1.30
2023-03-16T08:07:29.190Z,1.50
2023-03-16T08:09:56.985Z,1.00
2023-03-16T08:12:24.843Z,1.30
2023-03-16T08:14:54.612Z,1.63
2023-03-16T08:17:22.499Z,1.50
2023-03-16T08:19:50.287Z,1.20
2023-03-16T08:22:19.042Z,1.37
2023-03-16T08:24:46.809Z,1.20
2023-03-16T08:27:16.151Z,1.00
2023-03-16T08:29:43.992Z,1.47
2023-03-16T08:32:13.476Z,1.47
2023-03-16T08:34:41.327Z,1.20
2023-03-16T08:37:09.876Z,1.30
2023-03-16T08:39:37.687Z,1.07
2023-03-16T08:42:07.626Z,0.87
2023-03-16T08:44:36.284Z,1.20
2023-03-16T08:47:05.218Z,1.47
2023-03-16T08:49:34.947Z,0.93
2023-03-16T08:52:02.779Z,1.23
2023-03-16T08:54:32.474Z,1.40
2023-03-16T08:57:00.531Z,1.20
2023-03-16T08:59:30.440Z,1.27
2023-03-16T09:01:58.869Z,0.90
2023-03-16T09:04:26.782Z,1.37
2023-03-16T09:07:07.806Z,1.47
2023-03-16T09:09:37.144Z,1.27
2023-03-16T09:12:05.991Z,1.50
2023-03-16T09:14:34.193Z,1.40
2023-03-16T09:17:02.021Z,1.20
2023-03-16T09:19:47.872Z,1.27
2023-03-16T09:22:19.641Z,1.20
2023-03-16T09:24:48.539Z,1.47
2023-03-16T09:27:16.578Z,1.37
2023-03-16T09:29:45.446Z,1.40
2023-03-16T09:32:14.281Z,1.20
2023-03-16T09:34:42.500Z,1.47
2023-03-16T09:37:10.948Z,1.30
2023-03-16T09:39:40.559Z,1.10
2023-03-16T09:42:18.011Z,1.50
2023-03-16T09:44:57.988Z,1.20
2023-03-16T09:47:30.768Z,1.20
2023-03-16T09:50:01.452Z,1.30
2023-03-16T09:52:36.344Z,1.50
2023-03-16T09:55:13.061Z,1.20
2023-03-16T09:57:44.790Z,1.23
2023-03-16T10:00:19.436Z,1.20
2023-03-16T10:03:11.680Z,1.83
2023-03-16T10:05:40.890Z,1.27
2023-03-16T10:08:14.096Z,1.20
2023-03-16T10:10:59.761Z,1.30
2023-03-16T10:13:36.288Z,1.03
2023-03-16T10:16:09.533Z,1.20
2023-03-16T10:18:43.734Z,1.10
2023-03-16T10:21:18.238Z,1.30
2023-03-16T10:23:47.504Z,1.13
2023-03-16T10:26:22.085Z,1.17
2023-03-16T10:28:49.926Z,1.10
2023-03-16T10:31:21.340Z,1.20
2023-03-16T10:33:51.968Z,1.03
2023-03-16T10:36:28.456Z,1.00
2023-03-16T10:38:59.723Z,0.93
2023-03-16T10:41:32.098Z,1.10
2023-03-16T10:44:07.237Z,0.90
2023-03-16T10:46:40.347Z,0.87
2023-03-16T10:49:22.030Z,0.80
2023-03-16T10:51:51.300Z,0.90
2023-03-16T10:54:28.404Z,0.70
2023-03-16T10:56:57.877Z,1.00
2023-03-16T10:59:34.337Z,0.97
2023-03-16T11:02:03.620Z,1.00
2023-03-16T11:04:34.964Z,0.87
2023-03-16T11:07:02.777Z,0.73
2023-03-16T11:09:34.596Z,0.73
2023-03-16T11:12:15.542Z,0.60
2023-03-16T11:14:45.554Z,0.80
2023-03-16T11:17:18.093Z,0.93
2023-03-16T11:19:54.529Z,0.73
2023-03-16T11:22:25.426Z,1.03
2023-03-16T11:24:57.653Z,0.70
2023-03-16T11:27:32.065Z,0.73
2023-03-16T11:30:06.800Z,0.70
2023-03-16T11:32:38.119Z,1.00
2023-03-16T11:35:14.606Z,0.80
2023-03-16T11:38:04.509Z,0.80
2023-03-16T11:40:42.207Z,0.90
2023-03-16T11:43:28.499Z,0.80
2023-03-16T11:46:10.336Z,0.63
2023-03-16T11:48:43.912Z,0.60
2023-03-16T11:51:24.160Z,0.90
2023-03-16T11:53:58.635Z,0.60
2023-03-16T11:56:34.420Z,0.70
2023-03-16T11:59:17.444Z,0.70
2023-03-16T12:02:00.977Z,0.70
2023-03-16T12:04:53.514Z,0.83
2023-03-16T12:07:43.099Z,0.80
2023-03-16T12:10:23.798Z,0.60
2023-03-16T12:13:08.104Z,0.80
2023-03-16T12:15:44.936Z,0.87
2023-03-16T12:18:18.180Z,0.70
2023-03-16T12:20:52.323Z,0.60
2023-03-16T12:23:23.855Z,1.00
2023-03-16T12:25:54.520Z,0.90
2023-03-16T12:28:27.805Z,1.10
2023-03-16T12:31:09.591Z,0.80
2023-03-16T12:33:54.111Z,0.70
2023-03-16T12:36:40.032Z,0.80
2023-03-16T12:39:11.963Z,0.63
2023-03-16T12:41:52.486Z,0.90
2023-03-16T12:44:27.363Z,1.00
2023-03-16T12:47:01.584Z,0.70
2023-03-16T12:49:33.890Z,0.90
2023-03-16T12:52:02.976Z,0.93
2023-03-16T12:54:31.445Z,1.00
2023-03-16T12:57:04.718Z,0.73
2023-03-16T12:59:42.922Z,0.70
2023-03-16T13:02:17.060Z,0.80
2023-03-16T13:04:51.583Z,1.00
2023-03-16T13:07:23.898Z,0.70
2023-03-16T13:09:57.185Z,0.90
2023-03-16T13:12:27.840Z,0.80
2023-03-16T13:14:56.956Z,0.87
2023-03-16T13:17:33.900Z,1.00
2023-03-16T13:20:31.082Z,0.83
2023-03-16T13:23:22.330Z,0.87
2023-03-16T13:26:03.705Z,0.97
2023-03-16T13:28:34.342Z,0.70
2023-03-16T13:31:02.816Z,0.90
2023-03-16T13:33:36.740Z,0.90
2023-03-16T13:36:06.195Z,1.13
2023-03-16T13:38:34.105Z,1.00
2023-03-16T13:41:04.916Z,1.20
2023-03-16T13:43:35.798Z,0.90
2023-03-16T13:46:14.275Z,1.00
2023-03-16T13:48:43.881Z,0.70
2023-03-16T13:51:16.569Z,1.20
2023-03-16T13:53:45.372Z,0.77
2023-03-16T13:56:16.001Z,0.70
2023-03-16T13:58:48.403Z,0.70
2023-03-16T14:01:26.048Z,0.80
2023-03-16T14:03:58.288Z,0.77
2023-03-16T14:06:28.852Z,0.90
2023-03-16T14:09:01.274Z,0.77
2023-03-16T14:11:29.495Z,0.80
2023-03-16T14:13:59.189Z,0.77
2023-03-16T14:16:29.751Z,0.50
2023-03-16T14:19:03.692Z,0.80
2023-03-16T14:21:34.166Z,0.50
2023-03-16T14:24:04.475Z,1.20
2023-03-16T14:26:41.726Z,0.60
2023-03-16T14:29:19.475Z,0.73
2023-03-16T14:31:47.446Z,0.90
2023-03-16T14:34:28.812Z,0.70
2023-03-16T14:37:07.315Z,0.83
2023-03-16T14:39:35.217Z,0.60
2023-03-16T14:42:05.447Z,0.60
2023-03-16T14:44:35.886Z,0.83
2023-03-16T14:47:07.180Z,0.70
2023-03-16T14:49:38.469Z,0.70
2023-03-16T14:52:09.410Z,1.00
2023-03-16T14:54:37.459Z,0.80
2023-03-16T14:57:06.791Z,0.87
2023-03-16T14:59:35.194Z,1.00
2023-03-16T15:02:04.207Z,0.80
2023-03-16T15:04:35.222Z,0.60
2023-03-16T15:07:20.178Z,0.70
2023-03-16T15:09:49.555Z,0.83
2023-03-16T15:12:19.703Z,0.70
2023-03-16T15:15:06.564Z,0.90
2023-03-16T15:17:34.568Z,0.80
2023-03-16T15:20:02.351Z,0.70
2023-03-16T15:22:33.358Z,0.83
2023-03-16T15:25:17.960Z,0.70
2023-03-16T15:27:46.952Z,0.50
2023-03-16T15:30:18.905Z,0.80
2023-03-16T15:32:47.016Z,0.60
2023-03-16T15:35:15.696Z,0.63
2023-03-16T15:37:45.254Z,0.97
2023-03-16T15:40:18.957Z,0.63
2023-03-16T15:42:47.071Z,0.60
2023-03-16T15:45:17.527Z,0.80
2023-03-16T15:47:45.433Z,0.73
2023-03-16T15:50:15.681Z,0.70
2023-03-16T15:52:47.892Z,0.63
2023-03-16T15:55:21.155Z,0.70
2023-03-16T15:57:52.571Z,0.73
2023-03-16T16:00:33.133Z,0.70
2023-03-16T16:03:02.010Z,0.63
2023-03-16T16:05:30.775Z,0.70
2023-03-16T16:08:00.982Z,0.50
2023-03-16T16:10:29.654Z,0.60
2023-03-16T16:12:58.221Z,0.73
2023-03-16T16:15:29.595Z,0.60
2023-03-16T16:18:19.638Z,0.70
2023-03-16T16:20:46.413Z,0.80
2023-03-16T16:23:15.604Z,0.77
2023-03-16T16:25:45.030Z,0.73
2023-03-16T16:28:15.998Z,0.60
2023-03-16T16:30:43.880Z,0.80
2023-03-16T16:33:26.682Z,0.77
2023-03-16T16:35:56.394Z,0.70
2023-03-16T16:38:26.411Z,1.00
2023-03-16T16:40:57.170Z,0.70
2023-03-16T16:43:33.328Z,0.90
2023-03-16T16:46:01.993Z,0.90
2023-03-16T16:48:32.989Z,0.87
2023-03-16T16:51:01.464Z,0.70
2023-03-16T16:53:31.334Z,0.70
2023-03-16T16:55:59.875Z,0.80
2023-03-16T16:58:27.806Z,0.90
2023-03-16T17:00:58.051Z,0.87
2023-03-16T17:03:28.291Z,0.80
2023-03-16T17:05:58.003Z,1.17
2023-03-16T17:08:27.499Z,0.70
2023-03-16T17:10:57.229Z,1.10
2023-03-16T17:13:29.660Z,1.20
2023-03-16T17:15:57.662Z,0.80
2023-03-16T17:18:25.843Z,0.90
2023-03-16T17:20:54.023Z,0.73
2023-03-16T17:23:32.593Z,0.80
2023-03-16T17:26:04.300Z,0.83
2023-03-16T17:28:38.627Z,1.00
2023-03-16T17:31:07.172Z,0.90
2023-03-16T17:33:35.231Z,1.27
2023-03-16T17:36:05.166Z,1.00
2023-03-16T17:38:33.679Z,1.40
2023-03-16T17:41:03.065Z,1.20
2023-03-16T17:43:32.935Z,1.10
2023-03-16T17:46:04.543Z,1.20
2023-03-16T17:48:32.294Z,1.30
2023-03-16T17:51:00.581Z,1.10
2023-03-16T17:53:28.460Z,0.93
2023-03-16T17:55:56.217Z,1.07
2023-03-16T17:58:29.572Z,1.20
2023-03-16T18:00:58.427Z,1.30
2023-03-16T18:03:30.010Z,1.20
2023-03-16T18:05:58.474Z,1.00
2023-03-16T18:08:28.109Z,1.10
2023-03-16T18:10:57.667Z,1.07
2023-03-16T18:13:29.919Z,1.10
2023-03-16T18:15:58.658Z,1.40
2023-03-16T18:18:29.049Z,1.13
2023-03-16T18:20:58.081Z,1.10
2023-03-16T18:23:28.254Z,1.30
2023-03-16T18:26:01.059Z,1.17
2023-03-16T18:28:31.051Z,1.00
2023-03-16T18:30:59.820Z,0.83
2023-03-16T18:33:31.543Z,1.27
2023-03-16T18:36:02.637Z,0.90
2023-03-16T18:38:33.170Z,1.00
2023-03-16T18:41:15.980Z,1.00
2023-03-16T18:43:45.349Z,0.97
2023-03-16T18:46:22.999Z,1.17
2023-03-16T18:48:51.386Z,0.90
2023-03-16T18:51:21.628Z,1.00
2023-03-16T18:53:49.497Z,1.30
2023-03-16T18:56:22.006Z,1.30
2023-03-16T18:58:52.515Z,1.43
2023-03-16T19:01:24.607Z,1.13
2023-03-16T19:03:53.505Z,0.87
2023-03-16T19:06:27.265Z,1.00
2023-03-16T19:08:55.972Z,1.20
2023-03-16T19:11:23.793Z,1.10
2023-03-16T19:13:54.689Z,0.90
2023-03-16T19:16:23.454Z,0.93
2023-03-16T19:18:51.561Z,1.30
2023-03-16T19:21:22.897Z,1.20
2023-03-16T19:23:58.297Z,1.00
2023-03-16T19:26:26.534Z,1.27
2023-03-16T19:28:56.008Z,1.17
2023-03-16T19:31:26.623Z,1.20
2023-03-16T19:33:54.858Z,1.03
2023-03-16T19:36:24.791Z,1.20
2023-03-16T19:38:53.146Z,1.00
2023-03-16T19:41:24.702Z,1.20
2023-03-16T19:43:53.441Z,0.90
2023-03-16T19:46:23.126Z,0.93
2023-03-16T19:48:51.031Z,1.00
2023-03-16T19:51:19.012Z,1.40
2023-03-16T19:53:47.123Z,1.33
2023-03-16T19:56:16.322Z,1.50
2023-03-16T19:58:46.175Z,1.63
2023-03-16T20:01:19.439Z,1.30
2023-03-16T20:03:51.703Z,1.30
2023-03-16T20:06:21.876Z,1.07
2023-03-16T20:08:50.464Z,1.33
2023-03-16T20:11:23.527Z,1.20
2023-03-16T20:13:51.950Z,1.23
2023-03-16T20:16:26.375Z,1.07
2023-03-16T20:18:57.940Z,1.40
2023-03-16T20:21:26.569Z,1.27
2023-03-16T20:23:55.066Z,1.10
2023-03-16T20:26:24.652Z,1.20
2023-03-16T20:28:53.161Z,1.17
2023-03-16T20:31:23.857Z,1.27
2023-03-16T20:33:53.152Z,1.50
2023-03-16T20:36:24.009Z,1.20
2023-03-16T20:38:52.157Z,1.27
2023-03-16T20:41:25.786Z,1.30
2023-03-16T20:43:55.206Z,1.37
2023-03-16T20:46:26.461Z,1.50
2023-03-16T20:48:54.645Z,1.30
2023-03-16T20:51:24.656Z,1.33
2023-03-16T20:53:52.511Z,1.20
2023-03-16T20:56:22.441Z,1.30
2023-03-16T20:58:54.649Z,1.40
2023-03-16T21:01:24.631Z,1.23
2023-03-16T21:03:55.222Z,1.50
2023-03-16T21:06:27.586Z,1.00
2023-03-16T21:08:57.297Z,1.23
2023-03-16T21:11:28.492Z,1.17
2023-03-16T21:13:56.559Z,1.33
2023-03-16T21:16:25.224Z,1.30
2023-03-16T21:18:53.261Z,1.57
2023-03-16T21:21:21.914Z,1.27
2023-03-16T21:23:51.075Z,1.10
2023-03-16T21:26:22.190Z,1.33
2023-03-16T21:28:55.671Z,1.30
2023-03-16T21:31:24.231Z,1.20
2023-03-16T21:33:53.835Z,1.90
2023-03-16T21:36:24.497Z,1.40
2023-03-16T21:38:54.648Z,1.60
2023-03-16T21:41:22.523Z,1.10
2023-03-16T21:43:51.040Z,1.67
2023-03-16T21:46:20.732Z,1.50
2023-03-16T21:48:50.722Z,1.33
2023-03-16T21:51:20.953Z,1.30
2023-03-16T21:53:49.958Z,1.50
2023-03-16T21:56:22.852Z,1.27
2023-03-16T21:58:52.124Z,1.60
2023-03-16T22:01:23.522Z,1.37
2023-03-16T22:03:53.703Z,1.47
2023-03-16T22:06:21.900Z,2.03
2023-03-16T22:08:51.244Z,1.27
2023-03-16T22:11:23.171Z,1.87
2023-03-16T22:13:52.336Z,1.20
2023-03-16T22:16:23.320Z,1.30
2023-03-16T22:18:53.363Z,1.40
2023-03-16T22:21:28.581Z,1.30
2023-03-16T22:23:58.279Z,1.60
2023-03-16T22:26:28.767Z,1.43
2023-03-16T22:28:57.614Z,1.70
2023-03-16T22:31:30.217Z,1.43
2023-03-16T22:33:57.984Z,1.40
2023-03-16T22:36:26.036Z,1.73
2023-03-16T22:38:59.415Z,1.63
2023-03-16T22:41:30.632Z,1.20
2023-03-16T22:43:59.616Z,1.10
2023-03-16T22:46:29.584Z,1.70
2023-03-16T22:48:58.447Z,1.57
2023-03-16T22:51:30.157Z,1.30
2023-03-16T22:54:00.271Z,1.60
2023-03-16T22:56:32.054Z,1.40
2023-03-16T22:59:02.920Z,1.57
2023-03-16T23:01:35.068Z,1.53
2023-03-16T23:04:03.397Z,1.60
2023-03-16T23:06:32.555Z,1.30
2023-03-16T23:09:00.689Z,2.13
2023-03-16T23:11:32.388Z,1.30
2023-03-16T23:14:00.799Z,1.27
2023-03-16T23:16:30.774Z,1.83
2023-03-16T23:18:58.674Z,1.63
2023-03-16T23:21:27.865Z,1.53
2023-03-16T23:24:03.544Z,1.60
2023-03-16T23:26:33.299Z,1.60
2023-03-16T23:29:01.087Z,1.70
2023-03-16T23:31:29.190Z,1.50
2023-03-16T23:33:57.206Z,1.90
2023-03-16T23:36:26.089Z,1.37
2023-03-16T23:38:54.237Z,1.40
2023-03-16T23:41:24.366Z,1.70
2023-03-16T23:43:54.584Z,1.60
2023-03-16T23:46:24.904Z,1.80
2023-03-16T23:48:54.976Z,1.50
2023-03-16T23:51:27.184Z,1.60
2023-03-16T23:53:55.103Z,1.53
2023-03-16T23:56:23.679Z,1.77
2023-03-16T23:58:53.121Z,1.80
